createdAt,value
2019-04-26T00:01:53.545Z,17.75
2019-04-26T00:04:26.648Z,16.95
2019-04-26T00:06:59.631Z,18.55
2019-04-26T00:09:33.183Z,17.30
2019-04-26T00:12:06.475Z,17.90
2019-04-26T00:14:55.989Z,17.48
2019-04-26T00:17:44.912Z,17.82
2019-04-26T00:20:17.110Z,17.45
2019-04-26T00:22:49.261Z,17.50
2019-04-26T00:25:21.601Z,18.75
2019-04-26T00:27:53.224Z,17.42
2019-04-26T00:30:26.106Z,17.40
2019-04-26T00:32:58.941Z,16.50
2019-04-26T00:35:30.771Z,17.48
2019-04-26T00:38:03.137Z,17.87
2019-04-26T00:40:35.559Z,18.35
2019-04-26T00:43:07.428Z,18.92
2019-04-26T00:45:41.603Z,17.10
2019-04-26T00:48:15.266Z,17.98
2019-04-26T00:50:48.355Z,17.55
2019-04-26T00:53:21.828Z,18.10
2019-04-26T00:55:54.828Z,17.73
2019-04-26T00:58:28.268Z,18.40
2019-04-26T01:01:00.712Z,18.48
2019-04-26T01:03:33.422Z,16.48
2019-04-26T01:06:07.541Z,16.90
2019-04-26T01:11:09.820Z,17.35
2019-04-26T01:13:41.593Z,17.17
2019-04-26T01:16:13.298Z,17.32
2019-04-26T01:18:47.011Z,18.35
2019-04-26T01:21:22.613Z,21.68
2019-04-26T01:26:33.963Z,21.70
2019-04-26T01:29:14.603Z,22.17
2019-04-26T01:32:10.081Z,18.30
2019-04-26T01:34:46.443Z,17.98
2019-04-26T01:37:19.312Z,17.75
2019-04-26T01:39:56.517Z,18.02
2019-04-26T01:42:36.434Z,17.37
2019-04-26T01:45:10.488Z,17.32
2019-04-26T01:47:42.095Z,16.70
2019-04-26T01:50:14.099Z,17.23
2019-04-26T01:52:47.295Z,15.75
2019-04-26T01:55:18.701Z,16.48
2019-04-26T01:57:50.543Z,16.70
2019-04-26T02:00:24.163Z,16.85
2019-04-26T02:02:57.296Z,17.00
2019-04-26T02:05:29.987Z,15.25
2019-04-26T02:08:01.649Z,15.98
2019-04-26T02:10:33.294Z,16.37
2019-04-26T02:13:04.756Z,17.10
2019-04-26T02:15:36.913Z,17.25
2019-04-26T02:18:08.347Z,18.10
2019-04-26T02:20:56.617Z,18.45
2019-04-26T02:23:35.341Z,18.80
2019-04-26T02:26:26.652Z,16.67
2019-04-26T02:28:59.647Z,17.52
2019-04-26T02:31:33.319Z,15.43
2019-04-26T02:34:05.388Z,17.70
2019-04-26T02:36:56.124Z,16.95
2019-04-26T02:39:17.412Z,16.23
2019-04-26T02:41:52.111Z,16.55
2019-04-26T02:44:30.893Z,17.15
2019-04-26T02:47:09.132Z,17.50
2019-04-26T02:49:43.498Z,17.17
2019-04-26T02:55:17.045Z,16.60
2019-04-26T02:57:52.688Z,17.70
2019-04-26T03:00:24.750Z,16.32
2019-04-26T03:02:59.392Z,17.60
2019-04-26T03:05:34.275Z,16.73
2019-04-26T03:08:09.678Z,15.80
2019-04-26T03:10:44.103Z,16.48
2019-04-26T03:15:58.838Z,14.85
2019-04-26T03:18:39.472Z,16.48
2019-04-26T03:21:34.195Z,15.95
2019-04-26T03:24:17.150Z,16.00
2019-04-26T03:27:06.934Z,15.43
2019-04-26T03:30:05.023Z,14.73
2019-04-26T03:32:57.853Z,14.43
2019-04-26T03:36:02.841Z,15.28
2019-04-26T03:38:51.059Z,16.42
2019-04-26T03:41:42.871Z,15.50
2019-04-26T03:44:24.257Z,14.25
2019-04-26T03:46:58.653Z,15.10
2019-04-26T03:50:02.229Z,15.60
2019-04-26T03:52:44.138Z,14.60
2019-04-26T03:55:28.224Z,14.50
2019-04-26T03:58:10.226Z,14.60
2019-04-26T04:00:47.043Z,14.78
2019-04-26T04:03:47.315Z,14.80
2019-04-26T04:06:23.401Z,13.93
2019-04-26T04:09:00.969Z,14.55
2019-04-26T04:11:43.050Z,14.93
2019-04-26T04:14:17.508Z,13.85
2019-04-26T04:17:05.691Z,13.50
2019-04-26T04:20:11.437Z,13.98
2019-04-26T04:22:49.408Z,13.78
2019-04-26T04:25:24.050Z,14.55
2019-04-26T04:27:58.552Z,13.88
2019-04-26T04:30:36.114Z,14.70
2019-04-26T04:33:26.417Z,13.30
2019-04-26T04:36:02.449Z,14.10
2019-04-26T04:38:40.852Z,14.35
2019-04-26T04:41:34.989Z,14.15
2019-04-26T04:44:13.947Z,15.10
2019-04-26T04:47:24.549Z,14.40
2019-04-26T04:50:12.726Z,15.83
2019-04-26T04:52:50.278Z,15.45
2019-04-26T04:55:37.620Z,15.72
2019-04-26T04:58:18.102Z,16.42
2019-04-26T05:01:32.638Z,15.05
2019-04-26T05:04:14.704Z,14.00
2019-04-26T05:07:05.757Z,15.38
2019-04-26T05:09:45.309Z,14.87
2019-04-26T05:12:27.554Z,15.88
2019-04-26T05:15:02.180Z,15.35
2019-04-26T05:17:42.667Z,14.75
2019-04-26T05:20:35.207Z,15.78
2019-04-26T05:23:18.746Z,15.50
2019-04-26T05:26:30.251Z,14.68
2019-04-26T05:29:18.471Z,15.00
2019-04-26T05:31:54.837Z,15.00
2019-04-26T05:34:49.018Z,15.78
2019-04-26T05:37:38.799Z,15.50
2019-04-26T05:40:19.597Z,15.88
2019-04-26T05:43:19.559Z,15.93
2019-04-26T05:46:02.365Z,15.55
2019-04-26T05:49:12.548Z,14.93
2019-04-26T05:52:18.332Z,14.73
2019-04-26T05:55:24.773Z,13.80
2019-04-26T05:58:06.652Z,14.83
2019-04-26T06:00:38.506Z,15.98
2019-04-26T06:03:24.767Z,15.75
2019-04-26T06:06:31.120Z,15.65
2019-04-26T06:09:37.078Z,16.67
2019-04-26T06:12:22.455Z,15.50
2019-04-26T06:15:08.368Z,15.95
2019-04-26T06:17:51.720Z,16.82
2019-04-26T06:20:38.293Z,16.42
2019-04-26T06:23:22.094Z,16.73
2019-04-26T06:26:29.820Z,17.70
2019-04-26T06:29:14.169Z,16.85
2019-04-26T06:31:55.919Z,17.87
2019-04-26T06:35:05.863Z,19.37
2019-04-26T06:38:05.275Z,18.62
2019-04-26T06:41:07.132Z,18.48
2019-04-26T06:44:00.353Z,18.32
2019-04-26T06:46:48.382Z,17.45
2019-04-26T06:49:33.934Z,15.50
2019-04-26T06:52:08.702Z,16.00
2019-04-26T06:54:56.397Z,15.78
2019-04-26T06:57:59.414Z,14.38
2019-04-26T07:00:54.541Z,15.38
2019-04-26T07:04:04.122Z,15.40
2019-04-26T07:07:13.551Z,17.60
2019-04-26T07:10:04.374Z,15.85
2019-04-26T07:12:59.625Z,16.05
2019-04-26T07:16:17.231Z,18.20
2019-04-26T07:18:40.742Z,18.62
2019-04-26T07:21:23.102Z,17.42
2019-04-26T07:24:20.468Z,17.45
2019-04-26T07:27:01.638Z,16.62
2019-04-26T07:30:07.246Z,16.85
2019-04-26T07:33:02.404Z,18.73
2019-04-26T07:35:50.266Z,18.37
2019-04-26T07:38:51.927Z,17.20
2019-04-26T07:41:56.129Z,16.62
2019-04-26T07:44:49.385Z,18.15
2019-04-26T07:47:51.203Z,16.57
2019-04-26T07:50:40.822Z,15.85
2019-04-26T07:53:39.324Z,14.68
2019-04-26T07:56:30.887Z,13.13
2019-04-26T07:59:45.118Z,14.20
2019-04-26T08:02:24.260Z,13.53
2019-04-26T08:05:07.462Z,12.78
2019-04-26T08:07:41.939Z,14.55
2019-04-26T08:10:19.504Z,14.70
2019-04-26T08:12:57.114Z,13.95
2019-04-26T08:15:45.218Z,13.60
2019-04-26T08:18:37.085Z,14.03
2019-04-26T08:21:23.617Z,13.80
2019-04-26T08:23:59.926Z,13.25
2019-04-26T08:26:34.770Z,13.53
2019-04-26T08:29:08.477Z,11.93
2019-04-26T08:31:42.840Z,13.10
2019-04-26T08:34:20.630Z,13.62
2019-04-26T08:36:57.408Z,12.85
2019-04-26T08:39:46.407Z,11.45
2019-04-26T08:42:23.789Z,11.97
2019-04-26T08:44:58.875Z,12.58
2019-04-26T08:47:36.646Z,12.35
2019-04-26T08:50:18.134Z,12.10
2019-04-26T08:52:52.497Z,12.18
2019-04-26T08:55:30.208Z,13.43
2019-04-26T08:58:06.150Z,12.93
2019-04-26T09:00:42.437Z,12.63
2019-04-26T09:03:36.003Z,12.18
2019-04-26T09:06:14.419Z,11.73
2019-04-26T09:08:49.367Z,12.18
2019-04-26T09:13:58.133Z,14.87
2019-04-26T09:16:31.657Z,11.90
2019-04-26T09:19:03.311Z,11.18
2019-04-26T09:21:38.380Z,12.15
2019-04-26T09:24:12.959Z,12.40
2019-04-26T09:26:52.685Z,12.28
2019-04-26T09:29:30.573Z,12.00
2019-04-26T09:32:02.767Z,11.57
2019-04-26T09:34:41.404Z,11.70
2019-04-26T09:37:12.029Z,13.10
2019-04-26T09:39:43.715Z,13.20
2019-04-26T09:42:22.809Z,13.93
2019-04-26T09:45:02.503Z,14.07
2019-04-26T09:47:51.126Z,14.35
2019-04-26T09:50:26.409Z,15.23
2019-04-26T09:56:02.055Z,14.47
2019-04-26T09:58:38.381Z,16.93
2019-04-26T10:01:10.674Z,17.60
2019-04-26T10:03:42.592Z,18.35
2019-04-26T10:06:15.275Z,15.72
2019-04-26T10:08:48.009Z,13.90
2019-04-26T10:11:21.601Z,14.65
2019-04-26T10:13:59.057Z,15.40
2019-04-26T10:16:49.699Z,14.93
2019-04-26T10:19:23.299Z,14.75
2019-04-26T10:21:54.990Z,13.90
2019-04-26T10:24:27.366Z,13.70
2019-04-26T10:27:03.381Z,14.00
2019-04-26T10:29:37.904Z,15.15
2019-04-26T10:32:09.584Z,14.00
2019-04-26T10:34:42.652Z,14.25
2019-04-26T10:39:45.800Z,14.87
2019-04-26T10:42:17.549Z,17.75
2019-04-26T10:44:52.039Z,16.57
2019-04-26T10:47:24.754Z,14.85
2019-04-26T10:49:58.172Z,15.23
2019-04-26T10:52:54.276Z,15.43
2019-04-26T10:55:35.019Z,16.05
2019-04-26T10:58:10.617Z,16.75
2019-04-26T11:00:52.642Z,15.88
2019-04-26T11:03:25.533Z,15.72
2019-04-26T11:05:56.964Z,15.10
2019-04-26T11:08:29.481Z,15.63
2019-04-26T11:11:01.065Z,16.45
2019-04-26T11:13:32.594Z,15.68
2019-04-26T11:16:08.546Z,14.95
2019-04-26T11:18:47.006Z,13.15
2019-04-26T11:21:22.465Z,14.45
2019-04-26T11:23:57.790Z,14.55
2019-04-26T11:26:34.795Z,14.33
2019-04-26T11:29:09.146Z,16.40
2019-04-26T11:31:42.088Z,16.50
2019-04-26T11:34:14.156Z,15.18
2019-04-26T11:36:46.060Z,14.83
2019-04-26T11:39:18.570Z,15.30
2019-04-26T11:41:51.837Z,16.23
2019-04-26T11:44:27.617Z,13.62
2019-04-26T11:46:59.424Z,14.50
2019-04-26T11:49:30.868Z,13.78
2019-04-26T11:52:04.083Z,16.85
2019-04-26T11:54:36.175Z,18.80
2019-04-26T11:57:15.030Z,19.07
2019-04-26T11:59:48.695Z,18.60
2019-04-26T12:02:24.836Z,19.95
2019-04-26T12:05:19.644Z,18.32
2019-04-26T12:08:35.404Z,18.42
2019-04-26T12:11:18.388Z,19.87
2019-04-26T12:13:42.118Z,19.87
2019-04-26T12:16:14.575Z,19.25
2019-04-26T12:18:51.155Z,37.70
2019-04-26T12:21:22.756Z,18.90
2019-04-26T12:23:55.521Z,19.95
2019-04-26T12:26:42.310Z,22.87
2019-04-26T12:29:06.482Z,18.50
2019-04-26T12:31:39.653Z,15.23
2019-04-26T12:34:14.180Z,15.20
2019-04-26T12:36:46.741Z,13.60
2019-04-26T12:39:19.407Z,13.88
2019-04-26T12:41:51.836Z,14.45
2019-04-26T12:44:25.820Z,12.58
2019-04-26T12:47:03.449Z,13.55
2019-04-26T12:49:35.507Z,13.80
2019-04-26T12:52:07.460Z,12.18
2019-04-26T12:54:42.668Z,12.35
2019-04-26T12:57:16.263Z,15.10
2019-04-26T12:59:48.393Z,12.53
2019-04-26T13:02:21.996Z,31.65
2019-04-26T13:04:53.791Z,13.25
2019-04-26T13:07:25.492Z,14.05
2019-04-26T13:10:15.243Z,12.23
2019-04-26T13:13:01.494Z,12.00
2019-04-26T13:15:59.748Z,13.03
2019-04-26T13:18:33.147Z,13.30
2019-04-26T13:21:08.046Z,12.33
2019-04-26T13:23:40.749Z,11.33
2019-04-26T13:26:12.679Z,11.40
2019-04-26T13:28:44.576Z,11.40
2019-04-26T13:31:16.056Z,11.63
2019-04-26T13:33:47.662Z,12.15
2019-04-26T13:36:25.230Z,13.68
2019-04-26T13:38:55.611Z,12.55
2019-04-26T13:41:28.060Z,12.75
2019-04-26T13:44:01.275Z,12.82
2019-04-26T13:46:38.232Z,12.37
2019-04-26T13:49:14.187Z,12.07
2019-04-26T13:51:46.911Z,11.73
2019-04-26T13:54:21.198Z,12.03
2019-04-26T13:56:51.916Z,11.65
2019-04-26T13:59:28.190Z,12.88
2019-04-26T14:02:10.958Z,12.55
2019-04-26T14:04:32.312Z,14.25
2019-04-26T14:07:04.145Z,11.97
2019-04-26T14:09:36.208Z,12.37
2019-04-26T14:12:18.169Z,14.00
2019-04-26T14:14:49.991Z,12.85
2019-04-26T14:17:21.916Z,12.33
2019-04-26T14:19:53.587Z,11.97
2019-04-26T14:22:26.701Z,12.78
2019-04-26T14:25:02.812Z,13.48
2019-04-26T14:27:37.732Z,13.28
2019-04-26T14:30:13.550Z,13.58
2019-04-26T14:32:45.238Z,12.98
2019-04-26T14:35:17.490Z,12.68
2019-04-26T14:37:51.489Z,13.38
2019-04-26T14:40:35.176Z,12.58
2019-04-26T14:43:08.448Z,12.13
2019-04-26T14:45:55.223Z,12.15
2019-04-26T14:48:20.847Z,12.80
2019-04-26T14:50:49.620Z,11.95
2019-04-26T14:53:21.551Z,11.68
2019-04-26T14:55:54.625Z,10.98
2019-04-26T14:58:30.107Z,12.95
2019-04-26T15:01:06.483Z,12.00
2019-04-26T15:03:43.110Z,13.13
2019-04-26T15:06:23.790Z,11.50
2019-04-26T15:08:55.393Z,11.70
2019-04-26T15:11:26.885Z,15.93
2019-04-26T15:14:05.775Z,11.48
2019-04-26T15:16:37.413Z,11.80
2019-04-26T15:19:14.099Z,12.93
2019-04-26T15:21:46.696Z,12.33
2019-04-26T15:24:18.392Z,12.28
2019-04-26T15:26:51.606Z,12.13
2019-04-26T15:29:28.158Z,12.13
2019-04-26T15:32:00.712Z,12.05
2019-04-26T15:34:36.203Z,11.97
2019-04-26T15:37:09.901Z,13.13
2019-04-26T15:39:50.311Z,12.37
2019-04-26T15:42:33.787Z,12.68
2019-04-26T15:45:15.152Z,13.03
2019-04-26T15:48:04.781Z,13.08
2019-04-26T15:50:53.581Z,13.18
2019-04-26T15:53:25.875Z,11.85
2019-04-26T15:55:57.357Z,13.45
2019-04-26T15:58:29.054Z,12.68
2019-04-26T16:01:10.820Z,12.58
2019-04-26T16:04:04.303Z,12.63
2019-04-26T16:06:37.362Z,11.22
2019-04-26T16:09:13.953Z,12.60
2019-04-26T16:11:50.877Z,12.47
2019-04-26T16:14:26.368Z,11.90
2019-04-26T16:17:03.115Z,11.80
2019-04-26T16:19:37.728Z,11.18
2019-04-26T16:22:11.631Z,12.43
2019-04-26T16:24:43.262Z,12.25
2019-04-26T16:27:14.873Z,11.68
2019-04-26T16:29:50.881Z,10.45
2019-04-26T16:32:29.966Z,11.05
2019-04-26T16:35:02.911Z,23.15
2019-04-26T16:37:35.308Z,11.90
2019-04-26T16:40:12.296Z,13.38
2019-04-26T16:42:44.056Z,12.33
2019-04-26T16:45:15.745Z,14.55
2019-04-26T16:47:48.862Z,11.57
2019-04-26T16:50:25.280Z,11.97
2019-04-26T16:52:55.264Z,10.70
2019-04-26T16:55:26.945Z,11.97
2019-04-26T16:57:58.528Z,11.30
2019-04-26T17:00:48.243Z,11.05
2019-04-26T17:03:08.048Z,11.08
2019-04-26T17:08:12.829Z,11.30
2019-04-26T17:10:45.442Z,12.70
2019-04-26T17:13:25.522Z,13.70
2019-04-26T17:15:58.177Z,13.53
2019-04-26T17:18:27.196Z,13.75
2019-04-26T17:20:59.917Z,12.35
2019-04-26T17:23:38.943Z,12.78
2019-04-26T17:26:33.669Z,12.65
2019-04-26T17:29:04.074Z,12.82
2019-04-26T17:31:35.652Z,12.07
2019-04-26T17:34:07.210Z,11.93
2019-04-26T17:36:38.700Z,11.85
2019-04-26T17:39:16.884Z,11.85
2019-04-26T17:41:50.787Z,11.93
2019-04-26T17:44:20.586Z,11.90
2019-04-26T17:46:56.321Z,11.90
2019-04-26T17:49:27.130Z,13.58
2019-04-26T17:52:00.342Z,12.57
2019-04-26T17:54:46.251Z,15.83
2019-04-26T17:57:09.309Z,19.15
2019-04-26T17:59:45.256Z,21.02
2019-04-26T18:02:25.853Z,21.20
2019-04-26T18:04:58.097Z,22.58
2019-04-26T18:07:42.932Z,22.05
2019-04-26T18:10:04.772Z,21.30
2019-04-26T18:12:40.718Z,20.35
2019-04-26T18:15:12.524Z,20.80
2019-04-26T18:17:45.255Z,21.35
2019-04-26T18:20:24.286Z,21.20
2019-04-26T18:23:10.015Z,20.32
2019-04-26T18:25:44.927Z,22.02
2019-04-26T18:28:18.922Z,22.00
2019-04-26T18:30:50.566Z,22.05
2019-04-26T18:33:26.086Z,28.38
2019-04-26T18:35:58.836Z,29.75
2019-04-26T18:38:30.869Z,30.45
2019-04-26T18:41:03.879Z,30.90
2019-04-26T18:43:35.529Z,28.15
2019-04-26T18:46:09.836Z,29.63
2019-04-26T18:48:44.029Z,29.40
2019-04-26T18:53:48.897Z,31.33
2019-04-26T18:56:20.898Z,27.48
2019-04-26T18:58:55.907Z,27.77
2019-04-26T19:01:27.705Z,26.97
2019-04-26T19:04:00.282Z,28.25
2019-04-26T19:06:37.975Z,25.43
2019-04-26T19:09:09.154Z,25.88
2019-04-26T19:11:48.615Z,24.00
2019-04-26T19:14:21.870Z,22.80
2019-04-26T19:16:59.200Z,23.12
2019-04-26T19:19:32.814Z,21.65
2019-04-26T19:22:09.357Z,20.75
2019-04-26T19:24:41.929Z,18.25
2019-04-26T19:27:22.390Z,17.92
2019-04-26T19:29:51.793Z,18.07
2019-04-26T19:32:24.659Z,18.00
2019-04-26T19:34:56.463Z,17.30
2019-04-26T19:37:36.749Z,18.50
2019-04-26T19:42:42.149Z,17.98
2019-04-26T19:45:22.393Z,17.67
2019-04-26T19:48:02.332Z,18.17
2019-04-26T19:50:48.975Z,19.07
2019-04-26T19:53:21.352Z,18.35
2019-04-26T19:55:58.766Z,18.70
2019-04-26T19:58:33.863Z,18.00
2019-04-26T20:01:06.055Z,17.27
2019-04-26T20:03:40.620Z,16.48
2019-04-26T20:06:12.605Z,17.52
2019-04-26T20:08:47.956Z,15.83
2019-04-26T20:11:19.116Z,15.93
2019-04-26T20:13:55.186Z,13.98
2019-04-26T20:16:26.022Z,13.47
2019-04-26T20:18:57.912Z,12.82
2019-04-26T20:21:32.068Z,11.45
2019-04-26T20:24:05.139Z,10.48
2019-04-26T20:26:41.940Z,9.50
2019-04-26T20:29:13.678Z,9.28
2019-04-26T20:31:51.958Z,9.25
2019-04-26T20:34:23.641Z,9.20
2019-04-26T20:36:55.585Z,10.18
2019-04-26T20:39:27.472Z,10.65
2019-04-26T20:42:03.827Z,10.30
2019-04-26T20:44:48.062Z,9.80
2019-04-26T20:47:14.260Z,11.45
2019-04-26T20:49:49.664Z,16.12
2019-04-26T20:52:16.510Z,16.40
2019-04-26T20:54:51.216Z,15.13
2019-04-26T20:57:26.689Z,12.43
2019-04-26T21:00:01.521Z,11.20
2019-04-26T21:02:32.412Z,10.57
2019-04-26T21:05:11.189Z,10.18
2019-04-26T21:07:49.435Z,9.80
2019-04-26T21:10:21.993Z,10.72
2019-04-26T21:12:52.149Z,10.50
2019-04-26T21:15:24.214Z,9.45
2019-04-26T21:18:00.570Z,9.20
2019-04-26T21:20:32.739Z,8.80
2019-04-26T21:23:04.072Z,10.43
2019-04-26T21:25:37.407Z,13.25
2019-04-26T21:28:19.959Z,13.45
2019-04-26T21:31:09.229Z,15.40
2019-04-26T21:34:01.338Z,16.05
2019-04-26T21:36:40.888Z,28.45
2019-04-26T21:39:13.677Z,23.65
2019-04-26T21:41:48.455Z,23.70
2019-04-26T21:44:25.186Z,21.10
2019-04-26T21:47:03.346Z,21.10
2019-04-26T21:49:38.007Z,27.90
2019-04-26T21:52:13.638Z,26.12
2019-04-26T21:54:56.455Z,24.35
2019-04-26T21:57:35.044Z,31.00
2019-04-26T22:00:11.402Z,30.08
2019-04-26T22:02:54.110Z,32.13
2019-04-26T22:05:30.363Z,29.32
2019-04-26T22:08:01.808Z,25.08
2019-04-26T22:10:43.701Z,24.27
2019-04-26T22:13:18.204Z,19.48
2019-04-26T22:15:54.507Z,18.77
2019-04-26T22:18:26.854Z,18.37
2019-04-26T22:21:03.870Z,18.82
2019-04-26T22:23:47.576Z,20.70
2019-04-26T22:26:17.705Z,22.98
2019-04-26T22:28:53.293Z,28.17
2019-04-26T22:31:25.923Z,29.72
2019-04-26T22:33:57.513Z,29.07
2019-04-26T22:36:30.785Z,29.87
2019-04-26T22:39:04.636Z,27.75
2019-04-26T22:41:38.247Z,26.77
2019-04-26T22:44:11.593Z,27.48
2019-04-26T22:47:03.711Z,27.73
2019-04-26T22:49:41.655Z,29.82
2019-04-26T22:52:11.100Z,35.08
2019-04-26T22:54:46.412Z,33.63
2019-04-26T22:57:26.385Z,36.28
2019-04-26T22:59:58.243Z,35.68
2019-04-26T23:02:30.206Z,40.78
2019-04-26T23:05:02.100Z,43.45
2019-04-26T23:07:35.338Z,42.58
2019-04-26T23:10:08.899Z,40.28
2019-04-26T23:12:51.203Z,41.40
2019-04-26T23:15:43.146Z,38.90
2019-04-26T23:18:33.455Z,37.45
2019-04-26T23:21:14.949Z,34.55
2019-04-26T23:23:46.178Z,32.75
2019-04-26T23:26:19.819Z,32.35
2019-04-26T23:28:53.509Z,33.08
2019-04-26T23:31:27.084Z,33.18
2019-04-26T23:33:58.948Z,33.28
2019-04-26T23:36:30.731Z,34.30
2019-04-26T23:39:03.417Z,32.93
2019-04-26T23:41:41.284Z,33.08
2019-04-26T23:44:13.257Z,33.10
2019-04-26T23:46:46.342Z,34.63
2019-04-26T23:49:19.213Z,36.03
2019-04-26T23:54:28.077Z,32.63
2019-04-26T23:57:02.878Z,33.55
2019-04-26T23:59:35.217Z,30.65
